Time;durP1;ratioP1;P1;durP2;ratioP2;P2;SDS_P1;SDS_P2;PMS_P1;PMS_P2;Temp;Humidity;BMP_temperature;BMP_pressure;BME280_temperature;BME280_humidity;BME280_pressure;Samples;Min_cycle;Max_cycle;Signal;HPM_P1;HPM_P2
2024/01/12 00:11:27;;;;;;;5.65;1.38;;;;;;;5.30;100.00;103050.63;4908744;29;20046;-96
2024/01/12 03:30:48;;;;;;;4.67;1.70;;;;;;;4.95;100.00;102953.75;4855436;29;20061;-96
2024/01/12 04:07:05;;;;;;;7.40;1.70;;;;;;;4.79;100.00;102921.88;4920006;29;20047;-94
2024/01/12 04:09:31;;;;;;;3.88;1.50;;;;;;;4.80;100.00;102918.34;4879207;29;20040;-94
2024/01/12 04:11:57;;;;;;;7.15;1.48;;;;;;;4.81;100.00;102913.06;4889709;29;20036;-96
2024/01/12 04:14:31;;;;;;;5.00;1.52;;;;;;;4.87;100.00;102908.56;4894758;29;20063;-96
2024/01/12 04:16:57;;;;;;;5.22;1.70;;;;;;;4.88;100.00;102913.75;4887128;29;20080;-96
2024/01/12 04:19:23;;;;;;;4.03;1.75;;;;;;;4.85;100.00;102913.84;4896988;29;20032;-96
2024/01/12 04:21:49;;;;;;;1.75;1.50;;;;;;;4.81;100.00;102907.81;4879651;29;20040;-93
2024/01/12 04:24:14;;;;;;;4.53;1.45;;;;;;;4.78;100.00;102918.41;4885236;29;20047;-93
2024/01/12 04:26:43;;;;;;;5.82;1.58;;;;;;;4.80;100.00;102913.13;4884430;29;20044;-93
2024/01/12 04:29:09;;;;;;;3.72;1.50;;;;;;;4.83;100.00;102919.13;4899721;29;20055;-96
2024/01/12 04:31:43;;;;;;;4.43;1.88;;;;;;;4.82;100.00;102913.94;4898561;29;20051;-95
2024/01/12 04:34:09;;;;;;;6.45;1.83;;;;;;;4.82;100.00;102908.69;4870611;29;20055;-95
2024/01/12 04:36:35;;;;;;;4.80;1.65;;;;;;;4.83;100.00;102921.75;4872965;29;20402;-95
2024/01/12 04:39:18;;;;;;;5.75;1.90;;;;;;;4.87;100.00;102919.91;4871222;29;20036;-94
2024/01/12 04:41:45;;;;;;;7.70;1.83;;;;;;;4.78;100.00;102918.41;4896387;29;20081;-94
2024/01/12 04:44:23;;;;;;;5.25;1.65;;;;;;;4.81;100.00;102910.44;4882691;29;20139;-94
2024/01/12 04:47:35;;;;;;;2.97;1.33;;;;;;;4.79;100.00;102916.66;4886001;29;20183;-95
2024/01/12 04:51:03;;;;;;;2.78;1.40;;;;;;;4.54;100.00;102910.34;4881608;29;20501;-95
2024/01/12 04:57:36;;;;;;;;;;;;;;;;;;;;;
2024/01/12 05:00:31;;;;;;;3.65;1.77;;;;;;;4.64;100.00;102910.94;4926755;29;20046;-96
2024/01/12 05:03:14;;;;;;;5.72;2.40;;;;;;;4.76;100.00;102917.56;4864650;29;20508;-95
2024/01/12 05:06:20;;;;;;;4.05;2.45;;;;;;;4.80;100.00;102906.13;4858126;29;20190;-96
2024/01/12 05:08:50;;;;;;;6.85;1.48;;;;;;;4.79;100.00;102911.41;4854589;29;20045;-96
2024/01/12 05:11:22;;;;;;;4.45;1.70;;;;;;;4.78;100.00;102909.69;4849424;29;20033;-95
2024/01/12 05:14:06;;;;;;;7.60;2.00;;;;;;;4.82;100.00;102899.09;4845950;29;20041;-95
2024/01/12 05:16:34;;;;;;;5.45;1.73;;;;;;;4.73;100.00;102896.72;4858566;29;20040;-96
2024/01/12 05:19:00;;;;;;;6.88;2.17;;;;;;;4.75;100.00;102900.16;4833582;29;20068;-95
2024/01/12 05:22:43;;;;;;;3.25;1.13;;;;;;;4.64;100.00;102891.75;4840581;29;20120;-96
2024/01/12 05:26:12;;;;;;;7.55;1.70;;;;;;;4.72;100.00;102884.53;4789572;29;20228;-96
2024/01/12 05:28:44;;;;;;;3.28;1.85;;;;;;;4.68;100.00;102888.16;4818575;29;20070;-95
2024/01/12 05:31:17;;;;;;;4.13;1.77;;;;;;;4.49;100.00;102878.19;4849103;29;20108;-95
2024/01/12 05:37:39;;;;;;;3.15;1.75;;;;;;;4.44;100.00;102880.94;4918654;29;20035;-94
2024/01/12 05:43:57;;;;;;;6.72;2.10;;;;;;;4.67;100.00;102879.41;4915600;29;20576;-94
2024/01/12 05:46:23;;;;;;;8.57;2.25;;;;;;;4.74;100.00;102877.47;4888604;29;20044;-94
2024/01/12 05:48:55;;;;;;;4.70;1.52;;;;;;;4.82;100.00;102872.88;4893561;29;20556;-93
2024/01/12 05:51:22;;;;;;;7.30;2.13;;;;;;;4.80;100.00;102872.06;4888204;29;20177;-93
2024/01/12 05:53:50;;;;;;;8.73;2.55;;;;;;;4.84;100.00;102868.44;4922620;29;20031;-93
2024/01/12 05:56:19;;;;;;;6.85;2.20;;;;;;;4.93;100.00;102879.53;4910629;29;20131;-96
2024/01/12 05:59:34;;;;;;;5.70;1.95;;;;;;;5.00;100.00;102888.94;4893095;29;20050;-96
2024/01/12 06:02:20;;;;;;;5.95;2.45;;;;;;;4.81;100.00;102881.63;4848004;29;20106;-93
2024/01/12 06:04:46;;;;;;;4.10;2.65;;;;;;;4.71;100.00;102877.56;4898950;29;20492;-93
2024/01/12 06:10:43;;;;;;;6.75;1.92;;;;;;;4.49;100.00;102864.25;4929889;29;20039;-92
2024/01/12 06:13:17;;;;;;;2.53;1.55;;;;;;;4.62;100.00;102877.84;4906857;29;20078;-93
2024/01/12 06:15:48;;;;;;;;;;;;;;;4.59;100.00;102876.16;4922853;29;20032;-93
2024/01/12 06:18:14;;;;;;;7.35;2.10;;;;;;;4.60;100.00;102872.66;4903369;29;20363;-94
2024/01/12 06:20:59;;;;;;;4.20;1.77;;;;;;;4.66;100.00;102872.47;4903012;29;20127;-93
2024/01/12 06:23:34;;;;;;;2.80;1.88;;;;;;;4.64;100.00;102873.41;4910492;29;20035;-93
2024/01/12 06:26:10;;;;;;;6.20;2.70;;;;;;;4.44;100.00;102854.75;4890974;29;20052;-93
2024/01/12 06:28:35;;;;;;;5.78;2.03;;;;;;;4.43;100.00;102854.78;4884914;29;20031;-93
2024/01/12 06:31:43;;;;;;;4.22;2.15;;;;;;;4.55;100.00;102858.81;4897564;29;20050;-93
2024/01/12 06:34:09;;;;;;;;;;;;;;;4.53;100.00;102858.00;4917433;29;20118;-93
2024/01/12 06:36:35;;;;;;;7.25;2.05;;;;;;;4.49;100.00;102864.25;4906574;29;20352;-94
2024/01/12 06:39:05;;;;;;;5.35;2.15;;;;;;;4.50;100.00;102860.72;4922622;29;20040;-93
2024/01/12 06:41:30;;;;;;;3.08;1.92;;;;;;;4.51;100.00;102852.81;4903196;29;20502;-93
2024/01/12 06:43:57;;;;;;;5.45;2.20;;;;;;;4.40;100.00;102849.63;4904385;29;20040;-94
2024/01/12 06:46:23;;;;;;;3.72;2.25;;;;;;;4.49;100.00;102841.50;4886254;29;20040;-93
2024/01/12 06:48:49;;;;;;;6.55;2.33;;;;;;;4.58;100.00;102845.63;4905840;29;20031;-94
2024/01/12 06:51:22;;;;;;;10.75;2.97;;;;;;;4.66;100.00;102848.91;4903493;29;20481;-93
2024/01/12 06:53:48;;;;;;;8.15;2.60;;;;;;;4.63;100.00;102850.75;4887827;29;20044;-92
2024/01/12 06:56:21;;;;;;;6.13;2.90;;;;;;;4.66;100.00;102846.28;4888202;29;20050;-94
2024/01/12 06:58:47;;;;;;;6.45;2.22;;;;;;;4.54;100.00;102839.63;4904074;29;20469;-93
2024/01/12 07:01:16;;;;;;;4.53;2.78;;;;;;;4.48;100.00;102847.66;4900989;29;20111;-94
2024/01/12 07:03:41;;;;;;;5.75;3.13;;;;;;;4.40;100.00;102845.25;4914344;29;20076;-93
2024/01/12 07:06:07;;;;;;;8.65;2.72;;;;;;;4.36;100.00;102846.28;4887712;29;20074;-94
2024/01/12 07:08:33;;;;;;;9.80;3.97;;;;;;;4.36;100.00;102853.25;4904016;29;20091;-93
2024/01/12 07:11:03;;;;;;;7.20;3.05;;;;;;;4.38;100.00;102847.06;4902848;29;20047;-94
2024/01/12 07:13:29;;;;;;;8.65;2.80;;;;;;;4.32;100.00;102861.19;4908731;29;20118;-93
2024/01/12 07:15:54;;;;;;;7.38;2.70;;;;;;;4.26;100.00;102856.13;4892111;29;20043;-93
2024/01/12 07:18:20;;;;;;;5.88;2.80;;;;;;;4.24;100.00;102855.31;4903959;29;20501;-91
2024/01/12 07:20:46;;;;;;;8.45;2.38;;;;;;;4.19;100.00;102849.34;4903099;29;20046;-93
2024/01/12 07:23:12;;;;;;;6.65;1.67;;;;;;;4.18;100.00;102842.41;4919725;29;20139;-93
2024/01/12 07:25:38;;;;;;;3.97;1.92;;;;;;;4.16;100.00;102849.41;4882442;29;20035;-93
2024/01/12 07:28:07;;;;;;;4.38;1.95;;;;;;;4.29;100.00;102850.81;4889115;29;20051;-93
2024/01/12 07:30:33;;;;;;;4.40;2.20;;;;;;;4.31;100.00;102845.53;4897086;29;20159;-93
2024/01/12 07:32:59;;;;;;;7.32;2.45;;;;;;;4.38;100.00;102841.00;4886512;29;20131;-93
2024/01/12 07:35:25;;;;;;;6.18;2.30;;;;;;;4.35;100.00;102841.91;4883965;29;20033;-92
2024/01/12 07:37:51;;;;;;;6.82;2.67;;;;;;;4.40;100.00;102849.63;4890553;29;20046;-92
2024/01/12 07:40:17;;;;;;;5.82;2.05;;;;;;;4.43;100.00;102839.94;4893135;29;20048;-92
2024/01/12 07:42:43;;;;;;;8.13;2.33;;;;;;;4.46;100.00;102845.09;4865849;29;20063;-95
2024/01/12 07:45:11;;;;;;;4.47;2.40;;;;;;;4.52;100.00;102846.69;4868849;29;20416;-95
2024/01/12 07:47:37;;;;;;;6.55;2.22;;;;;;;4.43;100.00;102839.94;4867767;29;20036;-93
2024/01/12 07:50:03;;;;;;;5.82;2.45;;;;;;;4.34;100.00;102842.81;4885352;29;20485;-92
2024/01/12 07:52:29;;;;;;;4.55;2.20;;;;;;;4.29;100.00;102832.47;4869924;29;20650;-96
2024/01/12 07:54:54;;;;;;;6.13;2.30;;;;;;;4.27;100.00;102829.03;4885175;29;20485;-95
2024/01/12 07:57:20;;;;;;;4.38;2.10;;;;;;;4.38;100.00;102835.75;4882803;29;20554;-93
2024/01/12 07:59:46;;;;;;;4.20;2.17;;;;;;;4.34;100.00;102827.97;4885404;29;20043;-89
2024/01/12 08:02:12;;;;;;;7.05;2.33;;;;;;;4.33;100.00;102834.09;4866429;29;20075;-96
2024/01/12 08:08:17;;;;;;;4.85;1.92;;;;;;;4.44;100.00;102825.09;4915056;29;20098;-94
2024/01/12 08:10:43;;;;;;;4.65;2.03;;;;;;;4.46;100.00;102831.13;4881745;29;20040;-93
2024/01/12 08:13:10;;;;;;;5.68;2.58;;;;;;;4.41;100.00;102820.78;4896154;29;20466;-95
2024/01/12 08:15:36;;;;;;;5.43;2.03;;;;;;;4.45;100.00;102827.66;4896881;29;20039;-95
2024/01/12 08:18:02;;;;;;;5.38;2.20;;;;;;;4.49;100.00;102824.97;4875287;29;20055;-96
2024/01/12 08:20:28;;;;;;;11.25;3.83;;;;;;;4.41;100.00;102810.31;4886195;29;20073;-96
2024/01/12 08:22:54;;;;;;;3.97;2.15;;;;;;;4.38;100.00;102813.00;4863563;29;20095;-95
2024/01/12 08:25:21;;;;;;;5.55;1.92;;;;;;;4.42;100.00;102819.91;4887849;29;20416;-96
2024/01/12 08:27:46;;;;;;;6.38;2.55;;;;;;;4.33;100.00;102812.31;4883270;29;20121;-94
2024/01/12 08:30:13;;;;;;;5.65;2.28;;;;;;;4.44;100.00;102814.63;4887886;29;20612;-93
2024/01/12 08:32:39;;;;;;;5.95;2.17;;;;;;;4.44;100.00;102809.38;4906924;29;20051;-93
2024/01/12 08:35:05;;;;;;;5.15;1.90;;;;;;;4.46;100.00;102823.25;4891653;29;20059;-94
2024/01/12 08:37:31;;;;;;;4.43;2.03;;;;;;;4.41;100.00;102812.94;4904268;29;20102;-94
2024/01/12 08:39:57;;;;;;;7.07;2.13;;;;;;;4.44;100.00;102812.00;4873638;29;20123;-94
2024/01/12 08:42:22;;;;;;;4.50;2.28;;;;;;;4.37;100.00;102816.56;4917168;29;20698;-93
2024/01/12 08:44:48;;;;;;;3.88;2.63;;;;;;;4.36;100.00;102820.09;4900123;29;20389;-93
2024/01/12 08:47:14;;;;;;;6.78;2.63;;;;;;;4.37;100.00;102813.06;4904726;29;20071;-94
2024/01/12 08:49:40;;;;;;;6.82;2.67;;;;;;;4.45;100.00;102819.81;4888391;29;21036;-94
2024/01/12 08:52:06;;;;;;;3.95;2.75;;;;;;;4.47;100.00;102812.75;4902106;29;20047;-94
2024/01/12 08:54:32;;;;;;;5.43;3.97;;;;;;;4.54;100.00;102829.13;4885980;29;20048;-93
2024/01/12 08:56:58;;;;;;;8.77;3.03;;;;;;;4.46;100.00;102812.78;4890081;29;20123;-96
2024/01/12 08:59:25;;;;;;;8.10;2.88;;;;;;;4.44;100.00;102812.00;4906636;29;20043;-96
2024/01/12 09:01:51;;;;;;;5.15;2.88;;;;;;;4.41;100.00;102812.94;4904927;29;20040;-93
2024/01/12 09:04:17;;;;;;;5.07;3.03;;;;;;;4.51;100.00;102823.16;4899526;29;20044;-94
2024/01/12 09:06:43;;;;;;;6.18;3.22;;;;;;;4.51;100.00;102829.22;4917864;29;20042;-93
2024/01/12 09:09:09;;;;;;;5.50;3.03;;;;;;;4.49;100.00;102823.19;4901753;29;20115;-94
2024/01/12 09:11:35;;;;;;;7.50;3.08;;;;;;;4.46;100.00;102818.03;4902963;29;20036;-94
2024/01/12 09:14:02;;;;;;;3.70;3.28;;;;;;;4.53;100.00;102829.19;4885704;29;20519;-94
2024/01/12 09:16:28;;;;;;;5.10;3.08;;;;;;;4.53;100.00;102831.81;4902132;29;20044;-94
2024/01/12 09:18:54;;;;;;;4.75;3.22;;;;;;;4.51;100.00;102837.09;4903924;29;20043;-94
2024/01/12 09:21:20;;;;;;;7.85;3.53;;;;;;;4.53;100.00;102832.69;4905676;29;20062;-96
2024/01/12 09:23:46;;;;;;;6.70;3.55;;;;;;;4.49;100.00;102828.41;4914382;29;20397;-96
2024/01/12 09:26:12;;;;;;;6.30;3.13;;;;;;;4.47;100.00;102827.63;4917585;29;20580;-96
2024/01/12 09:28:39;;;;;;;8.55;3.90;;;;;;;4.47;100.00;102833.69;4918606;29;20547;-95
2024/01/12 09:31:05;;;;;;;4.55;3.40;;;;;;;4.50;100.00;102834.53;4901125;29;20060;-94
2024/01/12 09:33:31;;;;;;;8.38;3.33;;;;;;;4.51;100.00;102829.22;4867996;29;20052;-94
2024/01/12 09:35:57;;;;;;;7.25;3.80;;;;;;;4.46;100.00;102831.13;4882952;29;20043;-94
2024/01/12 09:38:23;;;;;;;5.28;3.35;;;;;;;4.43;100.00;102824.22;4898095;29;20072;-94
2024/01/12 09:40:49;;;;;;;5.47;3.55;;;;;;;4.48;100.00;102829.31;4872702;29;20046;-94
2024/01/12 09:43:28;;;;;;;6.35;3.38;;;;;;;4.55;100.00;102832.63;4870787;29;20028;-94
2024/01/12 09:45:59;;;;;;;8.93;4.57;;;;;;;4.57;100.00;102830.84;4870850;29;20040;-93
2024/01/12 09:48:27;;;;;;;10.90;4.55;;;;;;;4.52;100.00;102824.88;4870092;29;20032;-94
2024/01/12 09:50:55;;;;;;;6.18;3.70;;;;;;;4.54;100.00;102823.06;4885448;29;20028;-96
2024/01/12 09:53:21;;;;;;;4.25;3.85;;;;;;;4.53;100.00;102826.56;4898758;29;20148;-96
2024/01/12 09:55:49;;;;;;;11.07;4.60;;;;;;;4.54;100.00;102829.13;4873430;29;20044;-93
2024/01/12 09:58:16;;;;;;;6.82;5.20;;;;;;;4.50;100.00;102811.81;4867329;29;20040;-96
2024/01/12 10:00:45;;;;;;;6.68;4.78;;;;;;;4.55;100.00;102823.03;4884761;29;20028;-96
2024/01/12 10:03:13;;;;;;;4.95;4.45;;;;;;;4.54;100.00;102816.03;4870998;29;20485;-92
2024/01/12 10:05:41;;;;;;;5.55;3.85;;;;;;;4.56;100.00;102816.88;4867090;29;20075;-96
2024/01/12 10:08:08;;;;;;;4.75;3.85;;;;;;;4.59;100.00;102815.91;4875287;29;20067;-96
2024/01/12 10:10:34;;;;;;;9.63;4.25;;;;;;;4.58;100.00;102817.69;4881940;29;20108;-94
2024/01/12 10:13:03;;;;;;;4.15;3.75;;;;;;;4.53;100.00;102816.97;4868554;29;20652;-93
2024/01/12 10:15:29;;;;;;;8.70;2.58;;;;;;;4.50;100.00;102817.06;4883096;29;20023;-94
2024/01/12 10:17:56;;;;;;;3.05;2.67;;;;;;;4.45;100.00;102822.44;4887019;29;20028;-94
2024/01/12 10:20:22;;;;;;;4.97;3.17;;;;;;;4.36;100.00;102820.09;4871127;29;20059;-95
2024/01/12 10:22:58;;;;;;;3.10;2.60;;;;;;;4.22;100.00;102820.47;4895026;29;20040;-94
2024/01/12 10:25:24;;;;;;;8.27;3.72;;;;;;;4.25;100.00;102820.41;4905081;29;20040;-92
2024/01/12 10:27:59;;;;;;;6.95;3.40;;;;;;;4.39;100.00;102816.50;4915264;29;20573;-89
2024/01/12 10:30:27;;;;;;;4.67;3.70;;;;;;;4.44;100.00;102822.47;4883071;29;20482;-93
2024/01/12 10:32:54;;;;;;;6.57;4.00;;;;;;;4.42;100.00;102825.13;4915033;29;20463;-96
2024/01/12 10:35:21;;;;;;;3.85;3.35;;;;;;;4.32;100.00;102818.44;4898938;29;20494;-96
2024/01/12 10:37:48;;;;;;;4.38;3.53;;;;;;;4.29;100.00;102808.91;4874405;29;20043;-94
2024/01/12 10:40:16;;;;;;;2.83;2.53;;;;;;;4.21;100.00;102830.09;4885010;29;20043;-92
2024/01/12 10:42:57;;;;;;;5.28;4.00;;;;;;;4.36;100.00;102816.59;4891976;29;20045;-96
2024/01/12 10:45:26;;;;;;;5.22;4.45;;;;;;;4.36;100.00;102817.47;4884106;29;20044;-96
2024/01/12 10:48:16;;;;;;;7.55;4.47;;;;;;;4.41;100.00;102822.56;4864565;29;20044;-95
2024/01/12 10:50:45;;;;;;;5.25;4.10;;;;;;;4.29;100.00;102824.63;4899151;29;20040;-96
2024/01/12 10:53:28;;;;;;;6.60;4.88;;;;;;;4.27;100.00;102826.44;4881923;29;20044;-96
2024/01/12 10:55:59;;;;;;;7.25;4.57;;;;;;;4.27;100.00;102828.22;4897994;29;20051;-96
2024/01/12 10:58:28;;;;;;;6.20;4.82;;;;;;;4.30;100.00;102826.34;4908320;29;20060;-96
2024/01/12 11:00:55;;;;;;;4.88;4.35;;;;;;;4.38;100.00;102827.91;4878460;29;20032;-94
2024/01/12 11:03:22;;;;;;;4.07;3.35;;;;;;;4.33;100.00;102831.47;4879856;29;20043;-94
2024/01/12 11:05:49;;;;;;;5.15;4.40;;;;;;;4.42;100.00;102826.88;4899893;29;20058;-94
2024/01/12 11:08:15;;;;;;;6.88;4.70;;;;;;;4.51;100.00;102825.78;4869583;29;20131;-94
2024/01/12 11:10:52;;;;;;;6.35;3.85;;;;;;;4.57;100.00;102809.88;4867762;29;20590;-94
2024/01/12 11:13:18;;;;;;;7.43;4.38;;;;;;;4.58;100.00;102825.56;4884837;29;20036;-94
2024/01/12 11:15:49;;;;;;;6.57;3.65;;;;;;;4.53;100.00;102810.84;4865352;29;20040;-96
2024/01/12 11:18:17;;;;;;;4.53;4.03;;;;;;;4.57;100.00;102802.03;4890287;29;20104;-96
2024/01/12 11:21:09;;;;;;;7.95;5.22;;;;;;;4.63;100.00;102795.72;4907635;29;20071;-94
2024/01/12 11:23:40;;;;;;;7.75;5.03;;;;;;;4.62;100.00;102794.03;4880222;29;20025;-94
2024/01/12 11:26:08;;;;;;;5.38;4.40;;;;;;;4.59;100.00;102792.34;4905349;29;20036;-95
2024/01/12 11:28:38;;;;;;;4.68;4.20;;;;;;;4.64;100.00;102779.09;4858569;29;20036;-94
2024/01/12 11:31:05;;;;;;;4.38;3.97;;;;;;;4.61;100.00;102772.19;4877602;29;20044;-96
2024/01/12 11:33:41;;;;;;;6.80;4.18;;;;;;;4.66;100.00;102772.06;4882199;29;20075;-95
2024/01/12 11:36:14;;;;;;;8.93;4.97;;;;;;;4.65;100.00;102762.50;4914219;29;20147;-96
2024/01/12 11:38:42;;;;;;;4.85;4.30;;;;;;;4.58;100.00;102752.22;4897139;29;20054;-95
2024/01/12 11:41:12;;;;;;;6.63;4.43;;;;;;;4.61;100.00;102756.47;4893555;29;20044;-94
2024/01/12 11:43:38;;;;;;;16.02;7.80;;;;;;;4.57;100.00;102753.09;4901762;29;20054;-94
2024/01/12 11:46:05;;;;;;;12.55;5.10;;;;;;;4.52;100.00;102749.78;4899781;29;20501;-94
2024/01/12 11:48:32;;;;;;;10.00;4.63;;;;;;;4.54;100.00;102740.09;4867516;29;20046;-94
2024/01/12 11:50:58;;;;;;;7.78;4.65;;;;;;;4.67;100.00;102748.44;4899728;29;20051;-94
2024/01/12 11:53:24;;;;;;;4.68;4.00;;;;;;;4.60;100.00;102733.81;4898696;29;20043;-94
2024/01/12 11:55:49;;;;;;;7.18;4.72;;;;;;;4.59;100.00;102726.84;4899472;29;20039;-95
2024/01/12 11:58:15;;;;;;;7.95;4.72;;;;;;;4.67;100.00;102734.47;4886436;29;20040;-93
2024/01/12 12:00:48;;;;;;;5.80;5.22;;;;;;;4.68;100.00;102710.84;4881375;29;20107;-96
2024/01/12 12:03:15;;;;;;;6.00;4.75;;;;;;;4.70;100.00;102713.41;4906857;29;20036;-96
2024/01/12 12:05:44;;;;;;;5.80;5.20;;;;;;;4.81;100.00;102716.53;4896401;29;20051;-95
2024/01/12 12:08:09;;;;;;;6.05;5.10;;;;;;;4.71;100.00;102718.59;4889880;29;20405;-93
2024/01/12 12:10:35;;;;;;;6.50;5.10;;;;;;;4.85;100.00;102717.31;4901161;29;20032;-94
2024/01/12 12:13:02;;;;;;;9.20;4.90;;;;;;;4.86;100.00;102707.69;4866206;29;20051;-94
2024/01/12 12:15:28;;;;;;;5.75;4.65;;;;;;;4.82;100.00;102710.41;4892574;29;20823;-94
2024/01/12 12:17:54;;;;;;;7.07;4.00;;;;;;;4.71;100.00;102702.03;4866538;29;20032;-95
2024/01/12 12:20:20;;;;;;;5.90;4.07;;;;;;;4.72;100.00;102698.50;4899055;29;20047;-95
2024/01/12 12:22:46;;;;;;;6.20;4.70;;;;;;;4.68;100.00;102694.28;4900305;29;20024;-94
2024/01/12 12:25:15;;;;;;;6.38;3.58;;;;;;;4.62;100.00;102692.69;4896463;29;20040;-94
2024/01/12 12:27:45;;;;;;;5.80;4.22;;;;;;;4.68;100.00;102694.28;4908459;29;20127;-94
2024/01/12 12:30:35;;;;;;;6.53;4.60;;;;;;;4.76;100.00;102681.75;4869447;29;20060;-93
2024/01/12 12:33:03;;;;;;;4.45;3.83;;;;;;;4.70;100.00;102674.97;4874733;29;20055;-96
2024/01/12 12:35:30;;;;;;;13.95;4.40;;;;;;;4.75;100.00;102676.56;4887887;29;20044;-96
2024/01/12 12:38:00;;;;;;;6.93;4.30;;;;;;;4.78;100.00;102681.75;4903716;29;20063;-94
2024/01/12 12:40:26;;;;;;;7.03;3.95;;;;;;;4.71;100.00;102674.06;4897568;29;20047;-94
2024/01/12 12:42:52;;;;;;;4.38;3.97;;;;;;;4.77;100.00;102673.00;4868773;29;20036;-94
2024/01/12 12:45:23;;;;;;;6.57;4.47;;;;;;;4.74;100.00;102669.63;4883380;29;20043;-94
2024/01/12 12:47:50;;;;;;;6.30;4.38;;;;;;;4.69;100.00;102665.41;4872472;29;20387;-95
2024/01/12 12:50:16;;;;;;;5.10;4.03;;;;;;;4.67;100.00;102659.34;4869432;29;20104;-95
2024/01/12 12:52:47;;;;;;;6.93;4.30;;;;;;;4.72;100.00;102656.59;4899936;29;20075;-95
2024/01/12 12:55:13;;;;;;;8.00;4.10;;;;;;;4.76;100.00;102645.09;4894094;29;20123;-96
2024/01/12 12:57:42;;;;;;;5.82;3.53;;;;;;;4.88;100.00;102643.81;4864528;29;20075;-95
2024/01/12 13:00:09;;;;;;;6.18;3.90;;;;;;;4.96;100.00;102646.19;4885897;29;20195;-94
2024/01/12 13:02:37;;;;;;;5.97;4.05;;;;;;;5.02;100.00;102639.84;4885358;29;20145;-93
2024/01/12 13:05:03;;;;;;;4.80;4.25;;;;;;;5.06;100.00;102634.50;4896448;29;20044;-94
2024/01/12 13:07:29;;;;;;;6.18;4.10;;;;;;;5.14;100.00;102641.22;4883452;29;20712;-94
2024/01/12 13:10:25;;;;;;;5.75;4.47;;;;;;;5.19;100.00;102626.19;4877530;29;20036;-94
2024/01/12 13:12:51;;;;;;;5.20;4.10;;;;;;;5.16;100.00;102623.69;4863678;29;20076;-93
2024/01/12 13:15:17;;;;;;;8.27;4.00;;;;;;;5.11;100.00;102617.72;4864035;29;20043;-94
2024/01/12 13:22:25;;;;;;;5.15;3.85;;;;;;;4.89;100.00;102613.25;4854209;29;20683;-94
2024/01/12 13:25:26;;;;;;;4.20;3.72;;;;;;;4.82;100.00;102615.22;4894686;29;20049;-94
2024/01/12 13:27:52;;;;;;;7.10;4.50;;;;;;;4.79;100.00;102608.31;4880711;29;20032;-94
2024/01/12 13:30:18;;;;;;;3.92;3.63;;;;;;;4.82;100.00;102607.34;4874163;29;20115;-84
2024/01/12 13:32:43;;;;;;;6.95;4.55;;;;;;;4.91;100.00;102600.94;4883166;29;20056;-94
2024/01/12 13:35:09;;;;;;;6.47;4.40;;;;;;;4.97;100.00;102592.84;4881745;29;20525;-94
2024/01/12 13:37:35;;;;;;;10.32;4.63;;;;;;;4.99;100.00;102585.78;4903013;29;20130;-94
2024/01/12 13:40:01;;;;;;;5.18;4.25;;;;;;;5.03;100.00;102582.13;4854315;29;20557;-93
2024/01/12 13:42:27;;;;;;;8.23;3.92;;;;;;;5.08;100.00;102576.75;4895624;29;20051;-93
2024/01/12 13:44:52;;;;;;;4.25;3.70;;;;;;;5.16;100.00;102573.88;4898967;29;20723;-93
2024/01/12 13:47:19;;;;;;;6.10;4.13;;;;;;;5.16;100.00;102563.38;4887759;29;20114;-95
2024/01/12 13:49:45;;;;;;;6.47;4.20;;;;;;;5.16;100.00;102558.97;4887904;29;20175;-93
2024/01/12 13:52:11;;;;;;;4.88;4.35;;;;;;;5.16;100.00;102558.13;4872629;29;20044;-94
2024/01/12 13:54:38;;;;;;;8.05;4.75;;;;;;;5.24;100.00;102553.44;4915505;29;20141;-94
2024/01/12 13:57:04;;;;;;;6.60;5.40;;;;;;;5.22;100.00;102556.13;4873706;29;20122;-94
2024/01/12 13:59:30;;;;;;;9.73;6.90;;;;;;;5.12;100.00;102546.03;4901652;29;20119;-95
2024/01/12 14:01:57;;;;;;;7.13;5.20;;;;;;;5.01;100.00;102544.66;4917076;29;20032;-96
2024/01/12 14:04:23;;;;;;;8.15;4.80;;;;;;;5.03;100.00;102552.47;4899568;29;20038;-96
2024/01/12 14:06:50;;;;;;;5.40;4.90;;;;;;;5.03;100.00;102550.69;4895327;29;20039;-94
2024/01/12 14:09:17;;;;;;;7.40;4.80;;;;;;;4.95;100.00;102547.50;4893785;29;20103;-95
2024/01/12 14:11:43;;;;;;;7.20;4.97;;;;;;;4.99;100.00;102550.84;4895805;29;20555;-93
2024/01/12 14:14:10;;;;;;;7.25;6.45;;;;;;;4.96;100.00;102542.22;4884899;29;20070;-95
2024/01/12 14:16:36;;;;;;;7.05;4.50;;;;;;;5.00;100.00;102547.34;4877296;29;20468;-94
2024/01/12 14:19:02;;;;;;;6.70;4.97;;;;;;;4.97;100.00;102551.78;4890394;29;20050;-94
2024/01/12 14:21:29;;;;;;;5.35;4.80;;;;;;;4.89;100.00;102545.13;4914001;29;20070;-93
2024/01/12 14:23:55;;;;;;;6.07;5.20;;;;;;;4.88;100.00;102536.38;4869340;29;20035;-94
2024/01/12 14:26:21;;;;;;;5.95;5.30;;;;;;;4.92;100.00;102535.34;4899730;29;20040;-94
2024/01/12 14:28:47;;;;;;;5.22;4.55;;;;;;;4.93;100.00;102533.59;4904278;29;20569;-93
2024/01/12 14:31:15;;;;;;;6.82;5.55;;;;;;;4.89;100.00;102530.22;4884976;29;20048;-93
2024/01/12 14:33:43;;;;;;;6.13;5.18;;;;;;;4.91;100.00;102543.28;4882526;29;20044;-93
2024/01/12 14:36:09;;;;;;;7.72;4.85;;;;;;;4.90;100.00;102538.94;4872179;29;20036;-92
2024/01/12 14:38:35;;;;;;;8.13;5.15;;;;;;;4.90;100.00;102538.94;4901192;29;20043;-93
2024/01/12 14:41:03;;;;;;;7.72;5.18;;;;;;;4.92;100.00;102527.50;4887799;29;20040;-94
2024/01/12 14:43:29;;;;;;;8.95;5.20;;;;;;;5.01;100.00;102530.69;4904263;29;20036;-92
2024/01/12 14:45:57;;;;;;;8.77;6.50;;;;;;;4.99;100.00;102532.50;4864683;29;20028;-93
2024/01/12 14:48:24;;;;;;;19.00;5.97;;;;;;;4.97;100.00;102536.06;4872710;29;20048;-93
2024/01/12 14:50:51;;;;;;;9.90;6.07;;;;;;;4.89;100.00;102535.47;4900287;29;20126;-93
2024/01/12 14:53:17;;;;;;;7.53;6.07;;;;;;;4.81;100.00;102532.28;4886742;29;20047;-94
2024/01/12 14:55:44;;;;;;;8.70;6.43;;;;;;;4.77;100.00;102530.66;4869061;29;20096;-93
2024/01/12 14:58:11;;;;;;;10.00;6.10;;;;;;;4.71;100.00;102526.50;4877969;29;20145;-94
2024/01/12 15:00:37;;;;;;;7.20;6.32;;;;;;;4.67;100.00;102525.75;4888151;29;20040;-93
2024/01/12 15:03:04;;;;;;;9.73;6.55;;;;;;;4.68;100.00;102522.22;4896783;29;20050;-93
2024/01/12 15:05:30;;;;;;;6.97;6.30;;;;;;;4.61;100.00;102525.09;4901900;29;20033;-92
2024/01/12 15:07:56;;;;;;;6.18;5.57;;;;;;;4.58;100.00;102524.31;4899802;29;20027;-92
2024/01/12 15:10:24;;;;;;;7.72;6.05;;;;;;;4.56;100.00;102515.66;4873940;29;20035;-96
2024/01/12 15:12:50;;;;;;;6.35;5.70;;;;;;;4.53;100.00;102517.53;4888981;29;20039;-92
2024/01/12 15:15:19;;;;;;;8.23;6.28;;;;;;;4.54;100.00;102521.88;4899909;29;20044;-94
2024/01/12 15:17:53;;;;;;;9.13;6.65;;;;;;;4.49;100.00;102521.16;4886527;29;20043;-94
2024/01/12 15:20:22;;;;;;;12.02;9.75;;;;;;;4.42;100.00;102524.00;4882310;29;20024;-94
2024/01/12 15:22:48;;;;;;;10.80;9.13;;;;;;;4.44;100.00;102516.91;4898984;29;20028;-92
2024/01/12 15:25:14;;;;;;;20.10;11.88;;;;;;;4.49;100.00;102526.41;4883068;29;20076;-94
2024/01/12 15:27:40;;;;;;;10.38;7.85;;;;;;;4.57;100.00;102532.25;4899868;29;20032;-94
2024/01/12 15:30:06;;;;;;;11.55;7.93;;;;;;;4.58;100.00;102537.41;4881080;29;20046;-93
2024/01/12 15:32:33;;;;;;;9.18;7.60;;;;;;;4.61;100.00;102530.34;4863716;29;20052;-95
2024/01/12 15:34:59;;;;;;;8.63;7.30;;;;;;;4.57;100.00;102527.00;4896927;29;20864;-94
2024/01/12 15:37:25;;;;;;;10.77;7.68;;;;;;;4.50;100.00;102536.81;4877378;29;20036;-93
2024/01/12 15:39:51;;;;;;;12.88;7.30;;;;;;;4.42;100.00;102530.97;4900689;29;20032;-95
2024/01/12 15:42:23;;;;;;;8.52;7.35;;;;;;;4.41;100.00;102521.44;4898355;29;20036;-94
2024/01/12 15:44:57;;;;;;;8.52;7.03;;;;;;;4.50;100.00;102534.19;4866830;29;20133;-93
2024/01/12 15:47:26;;;;;;;12.23;10.20;;;;;;;4.45;100.00;102529.13;4894174;29;20054;-93
2024/01/12 15:49:52;;;;;;;14.73;8.70;;;;;;;4.38;100.00;102516.28;4867946;29;20032;-93
2024/01/12 15:52:24;;;;;;;9.35;8.35;;;;;;;4.39;100.00;102518.84;4884576;29;20064;-94
2024/01/12 15:54:53;;;;;;;10.00;8.93;;;;;;;4.30;100.00;102516.56;4886788;29;20131;-94
2024/01/12 15:57:36;;;;;;;15.18;8.80;;;;;;;4.29;100.00;102517.44;4898888;29;20050;-94
2024/01/12 16:00:10;;;;;;;11.57;8.05;;;;;;;4.25;100.00;102510.63;4887967;29;20048;-95
2024/01/12 16:02:42;;;;;;;13.18;9.00;;;;;;;4.23;100.00;102513.28;4872109;29;20056;-93